X  Sluiten METAR luchtvaart weer gegevens      EHAM Amsterdam Airport Schiphol
Temperatuur
20°C Temperatuur
15°C Dauwpunt
73% Vochtigheid



Wind
3 KM/U
2 MPH
1 M/S
2 KTS



Kalm
N
Huidig weer

Helder Helder
Luchtdruk 1005.76 (hPa) - 29.7 (inHg)
Zicht 6 (mijl) - 9.7 (km)
Vliegveld
Vliegveld code EHAM

Locatie : Amsterdam Airport Schiphol
Afstand: 34 (km)

Metar:
EHAM 202155Z VRB02KT CAVOK 20/15 Q1006 NOSIG

Tijd: 20-07-2024 23:55 CEST